sensor_id;sensor_type;location;lat;lon;timestamp;temperature;humidity
18153;DHT22;9202;51.578;7.734;2023-09-30T10:58:13;20.70;99.90
18153;DHT22;9202;51.578;7.734;2023-09-30T11:00:16;19.00;99.90
18153;DHT22;9202;51.578;7.734;2023-09-30T11:02:20;18.80;99.90
18153;DHT22;9202;51.578;7.734;2023-09-30T11:04:23;18.70;99.90
18153;DHT22;9202;51.578;7.734;2023-09-30T11:06:26;18.70;99.90
18153;DHT22;9202;51.578;7.734;2023-09-30T11:08:30;18.70;99.90
18153;DHT22;9202;51.578;7.734;2023-09-30T11:10:40;18.50;99.90
18153;DHT22;9202;51.578;7.734;2023-09-30T11:12:54;18.40;99.90
18153;DHT22;9202;51.578;7.734;2023-09-30T11:15:01;18.50;99.90
18153;DHT22;9202;51.578;7.734;2023-09-30T11:17:04;18.40;99.90
18153;DHT22;9202;51.578;7.734;2023-09-30T11:19:06;18.30;99.90
18153;DHT22;9202;51.578;7.734;2023-09-30T11:21:11;18.10;99.90
18153;DHT22;9202;51.578;7.734;2023-09-30T11:23:15;17.90;99.90
18153;DHT22;9202;51.578;7.734;2023-09-30T11:25:18;17.70;99.90
18153;DHT22;9202;51.578;7.734;2023-09-30T11:27:24;17.80;99.90
18153;DHT22;9202;51.578;7.734;2023-09-30T11:29:26;17.80;99.90
18153;DHT22;9202;51.578;7.734;2023-09-30T11:31:29;17.80;99.90
18153;DHT22;9202;51.578;7.734;2023-09-30T11:33:34;18.00;99.90
18153;DHT22;9202;51.578;7.734;2023-09-30T11:35:39;18.10;99.90
18153;DHT22;9202;51.578;7.734;2023-09-30T11:37:42;18.30;99.90
18153;DHT22;9202;51.578;7.734;2023-09-30T11:39:47;18.50;99.90
18153;DHT22;9202;51.578;7.734;2023-09-30T11:41:50;18.60;99.90
18153;DHT22;9202;51.578;7.734;2023-09-30T11:43:59;18.60;99.90
18153;DHT22;9202;51.578;7.734;2023-09-30T11:46:07;18.70;99.90
18153;DHT22;9202;51.578;7.734;2023-09-30T11:48:17;18.70;99.90
18153;DHT22;9202;51.578;7.734;2023-09-30T11:50:21;18.70;99.90
18153;DHT22;9202;51.578;7.734;2023-09-30T11:52:26;18.80;99.90
18153;DHT22;9202;51.578;7.734;2023-09-30T11:54:33;18.80;99.90
18153;DHT22;9202;51.578;7.734;2023-09-30T11:56:38;18.70;99.90
18153;DHT22;9202;51.578;7.734;2023-09-30T11:58:47;18.50;99.90
18153;DHT22;9202;51.578;7.734;2023-09-30T12:00:52;18.40;99.90
18153;DHT22;9202;51.578;7.734;2023-09-30T12:02:55;18.30;99.90
18153;DHT22;9202;51.578;7.734;2023-09-30T12:04:59;18.30;99.90
18153;DHT22;9202;51.578;7.734;2023-09-30T12:07:05;18.40;99.90
18153;DHT22;9202;51.578;7.734;2023-09-30T12:09:08;18.50;99.90
18153;DHT22;9202;51.578;7.734;2023-09-30T12:11:14;18.50;99.90
18153;DHT22;9202;51.578;7.734;2023-09-30T12:13:17;18.40;99.90
18153;DHT22;9202;51.578;7.734;2023-09-30T12:15:20;18.40;99.90
18153;DHT22;9202;51.578;7.734;2023-09-30T12:17:24;18.50;99.90
18153;DHT22;9202;51.578;7.734;2023-09-30T12:19:26;18.60;99.90
18153;DHT22;9202;51.578;7.734;2023-09-30T12:21:29;18.80;99.90
18153;DHT22;9202;51.578;7.734;2023-09-30T12:23:32;18.90;99.90
18153;DHT22;9202;51.578;7.734;2023-09-30T13:47:34;19.50;99.90
18153;DHT22;9202;51.578;7.734;2023-09-30T13:49:38;19.60;99.90
18153;DHT22;9202;51.578;7.734;2023-09-30T13:51:41;19.60;99.90
18153;DHT22;9202;51.578;7.734;2023-09-30T13:53:43;19.70;99.90
18153;DHT22;9202;51.578;7.734;2023-09-30T13:55:53;19.70;99.90
18153;DHT22;9202;51.578;7.734;2023-09-30T13:57:56;19.70;99.90
18153;DHT22;9202;51.578;7.734;2023-09-30T13:59:58;19.60;99.90
18153;DHT22;9202;51.578;7.734;2023-09-30T14:02:02;19.60;99.90
18153;DHT22;9202;51.578;7.734;2023-09-30T14:04:09;19.70;99.90
18153;DHT22;9202;51.578;7.734;2023-09-30T14:06:17;19.70;99.90
18153;DHT22;9202;51.578;7.734;2023-09-30T14:08:22;20.70;99.90
18153;DHT22;9202;51.578;7.734;2023-09-30T14:10:27;19.70;99.90
18153;DHT22;9202;51.578;7.734;2023-09-30T14:12:31;19.50;99.90
18153;DHT22;9202;51.578;7.734;2023-09-30T14:14:38;19.60;99.90
18153;DHT22;9202;51.578;7.734;2023-09-30T14:16:41;19.60;99.90
18153;DHT22;9202;51.578;7.734;2023-09-30T14:18:45;19.70;99.90
18153;DHT22;9202;51.578;7.734;2023-09-30T14:20:50;19.70;99.90
18153;DHT22;9202;51.578;7.734;2023-09-30T14:22:52;17.90;99.90
18153;DHT22;9202;51.578;7.734;2023-09-30T14:25:02;18.70;99.90
18153;DHT22;9202;51.578;7.734;2023-09-30T14:27:07;19.70;99.90
18153;DHT22;9202;51.578;7.734;2023-09-30T14:29:14;19.80;99.90
18153;DHT22;9202;51.578;7.734;2023-09-30T14:31:16;19.70;99.90
18153;DHT22;9202;51.578;7.734;2023-09-30T14:33:22;20.00;99.90
18153;DHT22;9202;51.578;7.734;2023-09-30T14:35:25;19.80;99.90
18153;DHT22;9202;51.578;7.734;2023-09-30T14:37:31;19.80;99.90
18153;DHT22;9202;51.578;7.734;2023-09-30T14:39:37;19.80;99.90
18153;DHT22;9202;51.578;7.734;2023-09-30T14:41:40;19.70;99.90
18153;DHT22;9202;51.578;7.734;2023-09-30T14:43:44;19.70;99.90
18153;DHT22;9202;51.578;7.734;2023-09-30T14:45:47;20.40;99.90
18153;DHT22;9202;51.578;7.734;2023-09-30T14:47:53;19.70;99.90
18153;DHT22;9202;51.578;7.734;2023-09-30T14:49:55;19.90;99.90
18153;DHT22;9202;51.578;7.734;2023-09-30T14:52:01;19.60;99.90
18153;DHT22;9202;51.578;7.734;2023-09-30T14:54:07;19.70;99.90
18153;DHT22;9202;51.578;7.734;2023-09-30T14:56:15;19.60;99.90
18153;DHT22;9202;51.578;7.734;2023-09-30T14:58:20;19.70;99.90
18153;DHT22;9202;51.578;7.734;2023-09-30T15:00:23;19.60;99.90
18153;DHT22;9202;51.578;7.734;2023-09-30T15:02:27;20.20;99.90
18153;DHT22;9202;51.578;7.734;2023-09-30T15:04:30;19.80;99.90
18153;DHT22;9202;51.578;7.734;2023-09-30T15:06:35;19.50;99.90
18153;DHT22;9202;51.578;7.734;2023-09-30T15:08:38;19.50;99.90
18153;DHT22;9202;51.578;7.734;2023-09-30T15:10:44;19.50;99.90
18153;DHT22;9202;51.578;7.734;2023-09-30T15:12:51;19.60;99.90
18153;DHT22;9202;51.578;7.734;2023-09-30T15:14:55;19.90;99.90
18153;DHT22;9202;51.578;7.734;2023-09-30T15:17:02;19.40;99.90
18153;DHT22;9202;51.578;7.734;2023-09-30T15:19:05;19.20;99.90
18153;DHT22;9202;51.578;7.734;2023-09-30T15:21:09;19.10;99.90
18153;DHT22;9202;51.578;7.734;2023-09-30T15:23:14;19.00;99.90
18153;DHT22;9202;51.578;7.734;2023-09-30T15:25:18;18.90;99.90
18153;DHT22;9202;51.578;7.734;2023-09-30T15:27:22;19.00;99.90
18153;DHT22;9202;51.578;7.734;2023-09-30T15:29:24;19.00;99.90
18153;DHT22;9202;51.578;7.734;2023-09-30T15:31:27;18.90;99.90
18153;DHT22;9202;51.578;7.734;2023-09-30T15:33:36;19.10;99.90
18153;DHT22;9202;51.578;7.734;2023-09-30T15:35:43;20.50;99.90
18153;DHT22;9202;51.578;7.734;2023-09-30T15:37:50;18.90;99.90
18153;DHT22;9202;51.578;7.734;2023-09-30T15:39:58;18.80;99.90
18153;DHT22;9202;51.578;7.734;2023-09-30T15:42:08;18.90;99.90
18153;DHT22;9202;51.578;7.734;2023-09-30T15:44:11;18.70;99.90
18153;DHT22;9202;51.578;7.734;2023-09-30T15:46:14;18.70;99.90
18153;DHT22;9202;51.578;7.734;2023-09-30T15:48:20;18.80;99.90
18153;DHT22;9202;51.578;7.734;2023-09-30T15:50:22;18.70;99.90
18153;DHT22;9202;51.578;7.734;2023-09-30T15:52:26;18.70;99.90
18153;DHT22;9202;51.578;7.734;2023-09-30T15:54:34;18.60;99.90
18153;DHT22;9202;51.578;7.734;2023-09-30T15:56:37;17.30;99.90
18153;DHT22;9202;51.578;7.734;2023-09-30T15:58:43;18.60;99.90
18153;DHT22;9202;51.578;7.734;2023-09-30T16:00:46;18.60;99.90
18153;DHT22;9202;51.578;7.734;2023-09-30T16:02:50;18.50;99.90
18153;DHT22;9202;51.578;7.734;2023-09-30T16:04:53;18.40;99.90
18153;DHT22;9202;51.578;7.734;2023-09-30T16:06:56;18.80;99.90
18153;DHT22;9202;51.578;7.734;2023-09-30T16:08:59;18.30;99.90
18153;DHT22;9202;51.578;7.734;2023-09-30T16:11:01;18.20;99.90
18153;DHT22;9202;51.578;7.734;2023-09-30T16:13:10;18.10;99.90
18153;DHT22;9202;51.578;7.734;2023-09-30T16:15:16;17.00;99.90
18153;DHT22;9202;51.578;7.734;2023-09-30T16:17:21;17.80;99.90
18153;DHT22;9202;51.578;7.734;2023-09-30T16:19:23;18.10;99.90
18153;DHT22;9202;51.578;7.734;2023-09-30T16:21:26;18.30;99.90
18153;DHT22;9202;51.578;7.734;2023-09-30T16:23:30;17.00;99.90
18153;DHT22;9202;51.578;7.734;2023-09-30T16:25:33;17.80;99.90
18153;DHT22;9202;51.578;7.734;2023-09-30T16:27:38;17.70;99.90
18153;DHT22;9202;51.578;7.734;2023-09-30T16:29:41;17.70;99.90
18153;DHT22;9202;51.578;7.734;2023-09-30T16:31:44;17.60;99.90
18153;DHT22;9202;51.578;7.734;2023-09-30T16:33:46;17.80;99.90
18153;DHT22;9202;51.578;7.734;2023-09-30T16:35:55;17.70;99.90
18153;DHT22;9202;51.578;7.734;2023-09-30T16:37:55;17.50;99.90
18153;DHT22;9202;51.578;7.734;2023-09-30T16:39:58;17.40;99.90
18153;DHT22;9202;51.578;7.734;2023-09-30T16:42:01;17.70;99.90
18153;DHT22;9202;51.578;7.734;2023-09-30T16:44:05;17.40;99.90
18153;DHT22;9202;51.578;7.734;2023-09-30T16:46:08;17.30;99.90
18153;DHT22;9202;51.578;7.734;2023-09-30T16:48:18;17.20;99.90
18153;DHT22;9202;51.578;7.734;2023-09-30T16:50:24;17.20;99.90
18153;DHT22;9202;51.578;7.734;2023-09-30T16:52:27;18.50;99.90
18153;DHT22;9202;51.578;7.734;2023-09-30T16:54:33;17.10;99.90
18153;DHT22;9202;51.578;7.734;2023-09-30T16:56:36;17.10;99.90
18153;DHT22;9202;51.578;7.734;2023-09-30T16:58:41;17.00;99.90
18153;DHT22;9202;51.578;7.734;2023-09-30T17:00:44;17.00;99.90
18153;DHT22;9202;51.578;7.734;2023-09-30T17:02:51;17.00;99.90
18153;DHT22;9202;51.578;7.734;2023-09-30T17:04:54;15.80;99.90
18153;DHT22;9202;51.578;7.734;2023-09-30T17:06:59;16.80;99.90
18153;DHT22;9202;51.578;7.734;2023-09-30T17:09:02;17.10;99.90
18153;DHT22;9202;51.578;7.734;2023-09-30T17:11:04;16.80;99.90
18153;DHT22;9202;51.578;7.734;2023-09-30T17:13:08;16.70;99.90
18153;DHT22;9202;51.578;7.734;2023-09-30T17:15:11;16.70;99.90
18153;DHT22;9202;51.578;7.734;2023-09-30T17:17:13;16.70;99.90
18153;DHT22;9202;51.578;7.734;2023-09-30T17:19:22;16.80;99.90
18153;DHT22;9202;51.578;7.734;2023-09-30T17:21:25;17.00;99.90
18153;DHT22;9202;51.578;7.734;2023-09-30T17:23:31;16.50;99.90
18153;DHT22;9202;51.578;7.734;2023-09-30T17:25:36;16.50;99.90
18153;DHT22;9202;51.578;7.734;2023-09-30T17:27:40;16.50;99.90
18153;DHT22;9202;51.578;7.734;2023-09-30T17:29:43;16.40;99.90
18153;DHT22;9202;51.578;7.734;2023-09-30T17:31:46;16.40;99.90
18153;DHT22;9202;51.578;7.734;2023-09-30T17:33:49;16.40;99.90
18153;DHT22;9202;51.578;7.734;2023-09-30T17:35:57;16.40;99.90
18153;DHT22;9202;51.578;7.734;2023-09-30T17:37:57;16.40;99.90
18153;DHT22;9202;51.578;7.734;2023-09-30T17:39:59;16.40;99.90
18153;DHT22;9202;51.578;7.734;2023-09-30T17:42:03;16.20;99.90
18153;DHT22;9202;51.578;7.734;2023-09-30T17:44:06;16.10;99.90
18153;DHT22;9202;51.578;7.734;2023-09-30T17:46:09;16.00;99.90
18153;DHT22;9202;51.578;7.734;2023-09-30T17:48:12;16.00;99.90
18153;DHT22;9202;51.578;7.734;2023-09-30T17:50:17;15.90;99.90
18153;DHT22;9202;51.578;7.734;2023-09-30T17:52:20;15.90;99.90
18153;DHT22;9202;51.578;7.734;2023-09-30T17:54:23;16.20;99.90
18153;DHT22;9202;51.578;7.734;2023-09-30T17:56:33;15.80;99.90
18153;DHT22;9202;51.578;7.734;2023-09-30T17:58:36;15.70;99.90
18153;DHT22;9202;51.578;7.734;2023-09-30T18:00:38;15.70;99.90
18153;DHT22;9202;51.578;7.734;2023-09-30T18:02:41;15.60;99.90
18153;DHT22;9202;51.578;7.734;2023-09-30T18:04:44;15.60;99.90
18153;DHT22;9202;51.578;7.734;2023-09-30T18:06:48;15.60;99.90
18153;DHT22;9202;51.578;7.734;2023-09-30T18:08:54;15.50;99.90
18153;DHT22;9202;51.578;7.734;2023-09-30T18:10:57;15.50;99.90
18153;DHT22;9202;51.578;7.734;2023-09-30T18:12:59;15.50;99.90
18153;DHT22;9202;51.578;7.734;2023-09-30T18:15:04;15.50;99.90
18153;DHT22;9202;51.578;7.734;2023-09-30T18:17:08;15.40;99.90
18153;DHT22;9202;51.578;7.734;2023-09-30T18:19:12;15.40;99.90
18153;DHT22;9202;51.578;7.734;2023-09-30T18:21:15;15.30;99.90
18153;DHT22;9202;51.578;7.734;2023-09-30T18:23:18;15.40;99.90
18153;DHT22;9202;51.578;7.734;2023-09-30T18:25:20;15.30;99.90
18153;DHT22;9202;51.578;7.734;2023-09-30T18:27:40;15.50;99.90
18153;DHT22;9202;51.578;7.734;2023-09-30T18:30:10;15.50;99.90
18153;DHT22;9202;51.578;7.734;2023-09-30T18:32:18;15.50;99.90
18153;DHT22;9202;51.578;7.734;2023-09-30T18:34:33;15.50;99.90
18153;DHT22;9202;51.578;7.734;2023-09-30T18:36:44;15.40;99.90
18153;DHT22;9202;51.578;7.734;2023-09-30T18:39:13;15.30;99.90
18153;DHT22;9202;51.578;7.734;2023-09-30T18:41:28;15.30;99.90
18153;DHT22;9202;51.578;7.734;2023-09-30T18:43:50;15.30;99.90
18153;DHT22;9202;51.578;7.734;2023-09-30T18:46:06;15.40;99.90
18153;DHT22;9202;51.578;7.734;2023-09-30T18:48:23;15.40;99.90
18153;DHT22;9202;51.578;7.734;2023-09-30T18:50:40;15.30;99.90
18153;DHT22;9202;51.578;7.734;2023-09-30T18:52:43;15.30;99.90
18153;DHT22;9202;51.578;7.734;2023-09-30T18:54:45;15.30;99.90
18153;DHT22;9202;51.578;7.734;2023-09-30T18:56:49;15.20;99.90
18153;DHT22;9202;51.578;7.734;2023-09-30T18:58:54;15.20;99.90
18153;DHT22;9202;51.578;7.734;2023-09-30T19:00:59;12.50;99.90
18153;DHT22;9202;51.578;7.734;2023-09-30T19:03:02;15.10;99.90
18153;DHT22;9202;51.578;7.734;2023-09-30T19:05:08;14.90;99.90
18153;DHT22;9202;51.578;7.734;2023-09-30T19:07:11;14.90;99.90
18153;DHT22;9202;51.578;7.734;2023-09-30T19:09:14;14.90;99.90
18153;DHT22;9202;51.578;7.734;2023-09-30T19:11:17;14.90;99.90
18153;DHT22;9202;51.578;7.734;2023-09-30T19:13:20;14.90;99.90
18153;DHT22;9202;51.578;7.734;2023-09-30T19:15:23;14.80;99.90
18153;DHT22;9202;51.578;7.734;2023-09-30T19:17:26;14.80;99.90
18153;DHT22;9202;51.578;7.734;2023-09-30T19:19:28;14.80;99.90
18153;DHT22;9202;51.578;7.734;2023-09-30T19:21:33;14.90;99.90
18153;DHT22;9202;51.578;7.734;2023-09-30T19:23:35;14.80;99.90
18153;DHT22;9202;51.578;7.734;2023-09-30T19:25:38;14.80;99.90
18153;DHT22;9202;51.578;7.734;2023-09-30T19:27:40;14.60;99.90
18153;DHT22;9202;51.578;7.734;2023-09-30T19:29:43;14.50;99.90
18153;DHT22;9202;51.578;7.734;2023-09-30T19:31:48;14.40;99.90
18153;DHT22;9202;51.578;7.734;2023-09-30T19:33:52;14.30;99.90
18153;DHT22;9202;51.578;7.734;2023-09-30T19:35:55;14.30;99.90
18153;DHT22;9202;51.578;7.734;2023-09-30T19:37:58;14.30;99.90
18153;DHT22;9202;51.578;7.734;2023-09-30T19:40:00;14.30;99.90
18153;DHT22;9202;51.578;7.734;2023-09-30T19:42:05;14.30;99.90
18153;DHT22;9202;51.578;7.734;2023-09-30T19:44:08;14.30;99.90
18153;DHT22;9202;51.578;7.734;2023-09-30T19:46:11;14.20;99.90
18153;DHT22;9202;51.578;7.734;2023-09-30T19:48:14;14.20;99.90
18153;DHT22;9202;51.578;7.734;2023-09-30T19:50:19;14.20;99.90
18153;DHT22;9202;51.578;7.734;2023-09-30T19:52:22;14.10;99.90
18153;DHT22;9202;51.578;7.734;2023-09-30T19:54:26;14.20;99.90
18153;DHT22;9202;51.578;7.734;2023-09-30T19:56:29;14.10;99.90
18153;DHT22;9202;51.578;7.734;2023-09-30T19:58:32;14.10;99.90
18153;DHT22;9202;51.578;7.734;2023-09-30T20:00:35;14.10;99.90
18153;DHT22;9202;51.578;7.734;2023-09-30T20:02:38;14.20;99.90
18153;DHT22;9202;51.578;7.734;2023-09-30T20:04:41;14.20;99.90
18153;DHT22;9202;51.578;7.734;2023-09-30T20:06:45;14.20;99.90
18153;DHT22;9202;51.578;7.734;2023-09-30T20:08:50;14.20;99.90
18153;DHT22;9202;51.578;7.734;2023-09-30T20:10:55;14.10;99.90
18153;DHT22;9202;51.578;7.734;2023-09-30T20:12:57;13.90;99.90
18153;DHT22;9202;51.578;7.734;2023-09-30T20:15:00;13.90;99.90
18153;DHT22;9202;51.578;7.734;2023-09-30T20:17:04;13.90;99.90
18153;DHT22;9202;51.578;7.734;2023-09-30T20:19:07;14.00;99.90
18153;DHT22;9202;51.578;7.734;2023-09-30T20:21:10;13.90;99.90
18153;DHT22;9202;51.578;7.734;2023-09-30T20:23:13;14.00;99.90
18153;DHT22;9202;51.578;7.734;2023-09-30T20:25:17;14.00;99.90
18153;DHT22;9202;51.578;7.734;2023-09-30T20:27:20;14.10;99.90
18153;DHT22;9202;51.578;7.734;2023-09-30T20:29:23;14.10;99.90
18153;DHT22;9202;51.578;7.734;2023-09-30T20:31:26;14.10;99.90
18153;DHT22;9202;51.578;7.734;2023-09-30T20:33:32;14.10;99.90
18153;DHT22;9202;51.578;7.734;2023-09-30T20:35:35;14.20;99.90
18153;DHT22;9202;51.578;7.734;2023-09-30T20:37:37;14.20;99.90
18153;DHT22;9202;51.578;7.734;2023-09-30T20:39:41;14.30;99.90
18153;DHT22;9202;51.578;7.734;2023-09-30T20:41:44;14.40;99.90
18153;DHT22;9202;51.578;7.734;2023-09-30T20:43:46;14.40;99.90
18153;DHT22;9202;51.578;7.734;2023-09-30T20:45:50;14.40;99.90
18153;DHT22;9202;51.578;7.734;2023-09-30T20:47:53;14.10;99.90
18153;DHT22;9202;51.578;7.734;2023-09-30T20:49:55;14.40;99.90
18153;DHT22;9202;51.578;7.734;2023-09-30T20:51:58;14.30;99.90
18153;DHT22;9202;51.578;7.734;2023-09-30T20:54:01;14.30;99.90
18153;DHT22;9202;51.578;7.734;2023-09-30T20:56:09;14.30;99.90
18153;DHT22;9202;51.578;7.734;2023-09-30T20:58:13;14.30;99.90
18153;DHT22;9202;51.578;7.734;2023-09-30T21:00:17;14.30;99.90
18153;DHT22;9202;51.578;7.734;2023-09-30T21:02:20;14.40;99.90
18153;DHT22;9202;51.578;7.734;2023-09-30T21:04:23;14.50;99.90
18153;DHT22;9202;51.578;7.734;2023-09-30T21:06:25;14.50;99.90
18153;DHT22;9202;51.578;7.734;2023-09-30T21:08:28;14.50;99.90
18153;DHT22;9202;51.578;7.734;2023-09-30T21:10:31;14.50;99.90
18153;DHT22;9202;51.578;7.734;2023-09-30T21:12:34;14.50;99.90
18153;DHT22;9202;51.578;7.734;2023-09-30T21:14:37;14.50;99.90
18153;DHT22;9202;51.578;7.734;2023-09-30T21:16:40;14.50;99.90
18153;DHT22;9202;51.578;7.734;2023-09-30T21:18:43;14.60;99.90
18153;DHT22;9202;51.578;7.734;2023-09-30T21:20:45;14.60;99.90
18153;DHT22;9202;51.578;7.734;2023-09-30T21:22:48;14.50;99.90
18153;DHT22;9202;51.578;7.734;2023-09-30T21:24:50;13.30;99.90
18153;DHT22;9202;51.578;7.734;2023-09-30T21:26:53;14.40;99.90
18153;DHT22;9202;51.578;7.734;2023-09-30T21:28:56;14.40;99.90
18153;DHT22;9202;51.578;7.734;2023-09-30T21:30:59;14.30;99.90
18153;DHT22;9202;51.578;7.734;2023-09-30T21:33:03;14.30;99.90
18153;DHT22;9202;51.578;7.734;2023-09-30T21:35:07;14.20;99.90
18153;DHT22;9202;51.578;7.734;2023-09-30T21:37:10;14.20;99.90
18153;DHT22;9202;51.578;7.734;2023-09-30T21:39:13;14.10;99.90
18153;DHT22;9202;51.578;7.734;2023-09-30T21:41:18;14.10;99.90
18153;DHT22;9202;51.578;7.734;2023-09-30T21:43:22;14.10;99.90
18153;DHT22;9202;51.578;7.734;2023-09-30T21:45:25;14.00;99.90
18153;DHT22;9202;51.578;7.734;2023-09-30T21:47:27;14.00;99.90
18153;DHT22;9202;51.578;7.734;2023-09-30T21:49:30;13.80;99.90
18153;DHT22;9202;51.578;7.734;2023-09-30T21:51:33;13.80;99.90
18153;DHT22;9202;51.578;7.734;2023-09-30T21:53:36;13.80;99.90
18153;DHT22;9202;51.578;7.734;2023-09-30T21:55:38;13.80;99.90
18153;DHT22;9202;51.578;7.734;2023-09-30T21:57:41;13.80;99.90
18153;DHT22;9202;51.578;7.734;2023-09-30T21:59:44;13.80;99.90
18153;DHT22;9202;51.578;7.734;2023-09-30T22:01:47;13.70;99.90
18153;DHT22;9202;51.578;7.734;2023-09-30T22:03:50;13.70;99.90
18153;DHT22;9202;51.578;7.734;2023-09-30T22:05:54;13.70;99.90
18153;DHT22;9202;51.578;7.734;2023-09-30T22:07:57;13.70;99.90
18153;DHT22;9202;51.578;7.734;2023-09-30T22:10:00;13.70;99.90
18153;DHT22;9202;51.578;7.734;2023-09-30T22:12:03;13.50;99.90
18153;DHT22;9202;51.578;7.734;2023-09-30T22:14:05;13.50;99.90
18153;DHT22;9202;51.578;7.734;2023-09-30T22:16:08;13.60;99.90
18153;DHT22;9202;51.578;7.734;2023-09-30T22:18:17;13.70;99.90
18153;DHT22;9202;51.578;7.734;2023-09-30T22:20:31;13.70;99.90
18153;DHT22;9202;51.578;7.734;2023-09-30T22:22:35;13.70;99.90
18153;DHT22;9202;51.578;7.734;2023-09-30T22:24:38;13.80;99.90
18153;DHT22;9202;51.578;7.734;2023-09-30T22:26:41;13.80;99.90
18153;DHT22;9202;51.578;7.734;2023-09-30T22:28:43;13.80;99.90
18153;DHT22;9202;51.578;7.734;2023-09-30T22:30:47;13.70;99.90
18153;DHT22;9202;51.578;7.734;2023-09-30T22:32:51;13.70;99.90
18153;DHT22;9202;51.578;7.734;2023-09-30T22:34:54;13.70;99.90
18153;DHT22;9202;51.578;7.734;2023-09-30T22:36:57;13.60;99.90
18153;DHT22;9202;51.578;7.734;2023-09-30T22:39:00;13.60;99.90
18153;DHT22;9202;51.578;7.734;2023-09-30T22:41:02;13.50;99.90
18153;DHT22;9202;51.578;7.734;2023-09-30T22:43:07;13.40;99.90
18153;DHT22;9202;51.578;7.734;2023-09-30T22:45:11;13.40;99.90
18153;DHT22;9202;51.578;7.734;2023-09-30T22:47:13;13.50;99.90
18153;DHT22;9202;51.578;7.734;2023-09-30T22:49:16;13.50;99.90
18153;DHT22;9202;51.578;7.734;2023-09-30T22:51:19;13.50;99.90
18153;DHT22;9202;51.578;7.734;2023-09-30T22:53:21;13.40;99.90
18153;DHT22;9202;51.578;7.734;2023-09-30T22:55:24;13.30;99.90
18153;DHT22;9202;51.578;7.734;2023-09-30T22:57:27;13.30;99.90
18153;DHT22;9202;51.578;7.734;2023-09-30T22:59:30;13.30;99.90
18153;DHT22;9202;51.578;7.734;2023-09-30T23:01:33;13.30;99.90
18153;DHT22;9202;51.578;7.734;2023-09-30T23:03:36;13.30;99.90
18153;DHT22;9202;51.578;7.734;2023-09-30T23:05:38;13.30;99.90
18153;DHT22;9202;51.578;7.734;2023-09-30T23:07:41;13.10;99.90
18153;DHT22;9202;51.578;7.734;2023-09-30T23:09:46;13.10;99.90
18153;DHT22;9202;51.578;7.734;2023-09-30T23:11:49;13.10;99.90
18153;DHT22;9202;51.578;7.734;2023-09-30T23:13:52;13.10;99.90
18153;DHT22;9202;51.578;7.734;2023-09-30T23:15:54;13.00;99.90
18153;DHT22;9202;51.578;7.734;2023-09-30T23:17:57;13.10;99.90
18153;DHT22;9202;51.578;7.734;2023-09-30T23:20:00;13.10;99.90
18153;DHT22;9202;51.578;7.734;2023-09-30T23:22:04;13.10;99.90
18153;DHT22;9202;51.578;7.734;2023-09-30T23:24:10;13.00;99.90
18153;DHT22;9202;51.578;7.734;2023-09-30T23:26:13;13.10;99.90
18153;DHT22;9202;51.578;7.734;2023-09-30T23:28:16;13.00;99.90
18153;DHT22;9202;51.578;7.734;2023-09-30T23:30:20;12.90;99.90
18153;DHT22;9202;51.578;7.734;2023-09-30T23:32:25;12.90;99.90
18153;DHT22;9202;51.578;7.734;2023-09-30T23:34:28;12.80;99.90
18153;DHT22;9202;51.578;7.734;2023-09-30T23:36:30;12.80;99.90
18153;DHT22;9202;51.578;7.734;2023-09-30T23:38:33;12.80;99.90
18153;DHT22;9202;51.578;7.734;2023-09-30T23:40:35;12.80;99.90
18153;DHT22;9202;51.578;7.734;2023-09-30T23:42:39;12.80;99.90
18153;DHT22;9202;51.578;7.734;2023-09-30T23:44:43;12.80;99.90
18153;DHT22;9202;51.578;7.734;2023-09-30T23:46:48;12.90;99.90
18153;DHT22;9202;51.578;7.734;2023-09-30T23:48:52;12.90;99.90
18153;DHT22;9202;51.578;7.734;2023-09-30T23:50:54;12.80;99.90
18153;DHT22;9202;51.578;7.734;2023-09-30T23:52:57;12.80;99.90
18153;DHT22;9202;51.578;7.734;2023-09-30T23:55:01;12.80;99.90
18153;DHT22;9202;51.578;7.734;2023-09-30T23:57:06;12.80;99.90
18153;DHT22;9202;51.578;7.734;2023-09-30T23:59:09;12.70;99.90
